createdAt,value
2022-10-26T00:01:18.865Z,32.95
2022-10-26T00:03:47.751Z,38.08
2022-10-26T00:06:17.585Z,35.03
2022-10-26T00:08:46.651Z,37.47
2022-10-26T00:11:15.352Z,34.22
2022-10-26T00:13:43.926Z,32.40
2022-10-26T00:16:15.928Z,36.50
2022-10-26T00:18:44.336Z,43.90
2022-10-26T00:21:12.793Z,37.67
2022-10-26T00:23:41.096Z,43.45
2022-10-26T00:26:22.727Z,37.78
2022-10-26T00:28:53.635Z,32.65
2022-10-26T00:31:25.562Z,35.60
2022-10-26T00:33:54.343Z,35.88
2022-10-26T00:36:22.756Z,37.45
2022-10-26T00:38:51.502Z,34.42
2022-10-26T00:41:22.511Z,37.47
2022-10-26T00:43:51.425Z,38.05
2022-10-26T00:46:23.846Z,35.83
2022-10-26T00:48:56.229Z,39.17
2022-10-26T00:51:30.350Z,40.58
2022-10-26T00:53:58.674Z,35.10
2022-10-26T00:56:27.345Z,38.75
2022-10-26T00:58:57.406Z,37.72
2022-10-26T01:01:27.016Z,42.67
2022-10-26T01:03:55.302Z,35.45
2022-10-26T01:06:23.792Z,39.88
2022-10-26T01:08:52.883Z,41.47
2022-10-26T01:11:21.401Z,44.10
2022-10-26T01:13:51.912Z,42.58
2022-10-26T01:16:42.779Z,41.55
2022-10-26T01:19:47.808Z,37.53
2022-10-26T01:22:21.640Z,34.28
2022-10-26T01:25:04.714Z,33.17
2022-10-26T01:27:36.675Z,36.25
2022-10-26T01:30:26.998Z,38.15
2022-10-26T01:33:14.204Z,35.05
2022-10-26T01:35:51.232Z,36.22
2022-10-26T01:38:27.312Z,39.13
2022-10-26T01:41:05.185Z,34.88
2022-10-26T01:43:40.139Z,37.38
2022-10-26T01:46:11.939Z,41.58
2022-10-26T01:48:42.346Z,34.88
2022-10-26T01:51:12.411Z,36.67
2022-10-26T01:53:46.893Z,37.97
2022-10-26T01:56:19.831Z,36.25
2022-10-26T01:59:14.742Z,43.45
2022-10-26T02:02:13.673Z,45.05
2022-10-26T02:04:51.019Z,40.00
2022-10-26T02:07:26.305Z,40.05
2022-10-26T02:10:01.061Z,44.80
2022-10-26T02:12:39.785Z,38.75
2022-10-26T02:15:11.204Z,43.35
2022-10-26T02:17:49.271Z,47.13
2022-10-26T02:20:23.064Z,46.83
2022-10-26T02:22:53.118Z,44.17
2022-10-26T02:25:24.999Z,52.28
2022-10-26T02:27:57.843Z,50.40
2022-10-26T02:30:26.292Z,48.75
2022-10-26T02:33:02.152Z,47.55
2022-10-26T02:35:35.254Z,51.55
2022-10-26T02:38:07.422Z,47.25
2022-10-26T02:40:36.963Z,53.95
2022-10-26T02:43:09.002Z,45.22
2022-10-26T02:45:49.444Z,53.05
2022-10-26T02:48:19.788Z,54.95
2022-10-26T02:50:55.433Z,58.72
2022-10-26T02:53:29.814Z,48.95
2022-10-26T02:56:02.418Z,55.88
2022-10-26T02:58:34.643Z,53.72
2022-10-26T03:01:03.033Z,53.63
2022-10-26T03:03:33.029Z,50.03
2022-10-26T03:06:01.258Z,48.30
2022-10-26T03:08:29.756Z,56.35
2022-10-26T03:10:58.102Z,54.03
2022-10-26T03:13:26.262Z,51.50
2022-10-26T03:15:57.255Z,53.53
2022-10-26T03:18:25.456Z,62.58
2022-10-26T03:20:56.473Z,51.88
2022-10-26T03:23:24.739Z,56.22
2022-10-26T03:25:52.860Z,52.65
2022-10-26T03:28:21.045Z,48.72
2022-10-26T03:30:49.358Z,49.38
2022-10-26T03:33:20.957Z,48.10
2022-10-26T03:35:57.780Z,49.55
2022-10-26T03:38:26.073Z,51.20
2022-10-26T03:40:54.350Z,55.45
2022-10-26T03:43:22.841Z,48.78
2022-10-26T03:45:51.289Z,48.08
2022-10-26T03:48:19.757Z,45.20
2022-10-26T03:50:49.258Z,49.28
2022-10-26T03:53:19.052Z,53.55
2022-10-26T03:55:47.526Z,51.05
2022-10-26T03:58:31.028Z,51.72
2022-10-26T04:01:01.477Z,50.42
2022-10-26T04:03:42.223Z,52.90
2022-10-26T04:06:10.549Z,46.95
2022-10-26T04:08:40.141Z,52.58
2022-10-26T04:11:08.458Z,54.67
2022-10-26T04:13:36.689Z,49.20
2022-10-26T04:16:05.196Z,52.65
2022-10-26T04:18:33.344Z,53.95
2022-10-26T04:21:03.152Z,43.63
2022-10-26T04:23:31.368Z,43.03
2022-10-26T04:26:00.926Z,41.65
2022-10-26T04:28:29.211Z,47.92
2022-10-26T04:30:57.318Z,43.47
2022-10-26T04:33:25.471Z,42.42
2022-10-26T04:35:53.665Z,42.42
2022-10-26T04:38:21.836Z,43.53
2022-10-26T04:40:52.351Z,41.42
2022-10-26T04:43:21.892Z,42.63
2022-10-26T04:45:50.109Z,37.50
2022-10-26T04:48:18.279Z,40.97
2022-10-26T04:50:47.773Z,38.63
2022-10-26T04:53:16.207Z,33.35
2022-10-26T04:55:44.500Z,41.92
2022-10-26T04:58:12.702Z,37.92
2022-10-26T05:00:42.250Z,34.65
2022-10-26T05:03:11.309Z,36.72
2022-10-26T05:05:39.450Z,32.42
2022-10-26T05:08:07.963Z,34.92
2022-10-26T05:10:37.018Z,35.30
2022-10-26T05:13:05.279Z,32.80
2022-10-26T05:15:33.500Z,31.95
2022-10-26T05:18:05.483Z,31.42
2022-10-26T05:20:35.189Z,33.30
2022-10-26T05:23:04.867Z,32.83
2022-10-26T05:25:36.397Z,34.53
2022-10-26T05:28:06.230Z,32.05
2022-10-26T05:30:35.745Z,34.38
2022-10-26T05:33:05.916Z,34.42
2022-10-26T05:35:34.612Z,33.67
2022-10-26T05:38:08.429Z,36.72
2022-10-26T05:40:36.660Z,30.10
2022-10-26T05:43:05.295Z,38.55
2022-10-26T05:45:33.519Z,31.10
2022-10-26T05:48:02.810Z,30.38
2022-10-26T05:50:32.779Z,37.90
2022-10-26T05:53:01.022Z,35.70
2022-10-26T05:55:30.202Z,37.00
2022-10-26T05:57:58.991Z,33.97
2022-10-26T06:00:29.713Z,36.15
2022-10-26T06:03:14.847Z,26.48
2022-10-26T06:05:53.373Z,28.08
2022-10-26T06:08:22.819Z,26.65
2022-10-26T06:10:51.896Z,28.73
2022-10-26T06:13:20.721Z,29.95
2022-10-26T06:16:00.840Z,31.60
2022-10-26T06:18:40.251Z,33.53
2022-10-26T06:21:26.683Z,28.80
2022-10-26T06:23:59.741Z,25.98
2022-10-26T06:26:38.005Z,24.75
2022-10-26T06:29:17.962Z,27.52
2022-10-26T06:31:47.920Z,25.30
2022-10-26T06:34:23.999Z,25.92
2022-10-26T06:39:23.435Z,29.42
2022-10-26T06:41:52.347Z,32.03
2022-10-26T06:44:24.081Z,23.20
2022-10-26T06:46:58.909Z,27.67
2022-10-26T06:49:32.617Z,23.92
2022-10-26T06:52:06.256Z,24.05
2022-10-26T06:54:48.641Z,27.35
2022-10-26T06:57:18.655Z,30.13
2022-10-26T06:59:50.308Z,31.10
2022-10-26T07:02:18.663Z,32.55
2022-10-26T07:04:47.392Z,30.13
2022-10-26T07:07:21.102Z,26.90
2022-10-26T07:09:49.758Z,27.10
2022-10-26T07:12:17.991Z,25.08
2022-10-26T07:14:46.370Z,24.13
2022-10-26T07:17:14.597Z,30.52
2022-10-26T07:19:44.675Z,24.25
2022-10-26T07:22:13.379Z,21.15
2022-10-26T07:24:42.947Z,22.67
2022-10-26T07:27:11.059Z,24.08
2022-10-26T07:29:39.772Z,21.83
2022-10-26T07:32:08.313Z,32.95
2022-10-26T07:34:36.421Z,35.78
2022-10-26T07:37:05.898Z,24.48
2022-10-26T07:39:34.052Z,25.67
2022-10-26T07:42:03.645Z,24.13
2022-10-26T07:44:31.781Z,23.40
2022-10-26T07:47:00.816Z,23.90
2022-10-26T07:49:29.244Z,29.42
2022-10-26T07:51:57.552Z,31.70
2022-10-26T07:54:25.687Z,31.73
2022-10-26T07:56:53.993Z,29.42
2022-10-26T07:59:23.867Z,34.55
2022-10-26T08:01:52.309Z,40.95
2022-10-26T08:04:20.503Z,43.75
2022-10-26T08:06:48.853Z,31.35
2022-10-26T08:09:17.095Z,32.40
2022-10-26T08:11:45.315Z,38.25
2022-10-26T08:14:13.523Z,30.45
2022-10-26T08:16:44.142Z,37.15
2022-10-26T08:19:12.278Z,28.45
2022-10-26T08:21:40.780Z,30.40
2022-10-26T08:24:10.297Z,35.13
2022-10-26T08:26:38.568Z,24.70
2022-10-26T08:29:06.858Z,23.45
2022-10-26T08:31:35.552Z,30.92
2022-10-26T08:34:05.200Z,27.70
2022-10-26T08:36:33.334Z,31.45
2022-10-26T08:39:01.519Z,27.17
2022-10-26T08:41:37.115Z,33.00
2022-10-26T08:44:15.004Z,29.90
2022-10-26T08:46:46.353Z,29.85
2022-10-26T08:49:24.365Z,25.52
2022-10-26T08:51:57.465Z,26.13
2022-10-26T08:54:38.188Z,25.13
2022-10-26T08:57:16.268Z,22.25
2022-10-26T08:59:52.214Z,29.40
2022-10-26T09:02:21.615Z,22.95
2022-10-26T09:04:51.278Z,20.38
2022-10-26T09:07:32.560Z,23.90
2022-10-26T09:10:11.935Z,27.45
2022-10-26T09:12:51.514Z,22.17
2022-10-26T09:15:29.926Z,23.17
2022-10-26T09:18:08.287Z,19.85
2022-10-26T09:20:54.078Z,22.13
2022-10-26T09:23:32.736Z,21.75
2022-10-26T09:26:02.586Z,23.65
2022-10-26T09:28:34.572Z,28.17
2022-10-26T09:31:04.558Z,20.83
2022-10-26T09:33:36.977Z,22.58
2022-10-26T09:36:13.164Z,24.85
2022-10-26T09:38:48.569Z,28.23
2022-10-26T09:41:27.125Z,23.70
2022-10-26T09:44:04.425Z,25.98
2022-10-26T09:46:39.366Z,22.88
2022-10-26T09:49:09.755Z,26.80
2022-10-26T09:51:42.430Z,26.35
2022-10-26T09:54:16.578Z,24.55
2022-10-26T09:56:47.401Z,28.15
2022-10-26T09:59:16.894Z,21.95
2022-10-26T10:01:45.078Z,25.55
2022-10-26T10:04:22.628Z,23.52
2022-10-26T10:06:53.504Z,23.80
2022-10-26T10:09:22.900Z,24.33
2022-10-26T10:11:56.611Z,23.20
2022-10-26T10:14:26.726Z,21.55
2022-10-26T10:16:56.773Z,25.88
2022-10-26T10:19:27.582Z,20.70
2022-10-26T10:22:01.385Z,22.65
2022-10-26T10:24:31.910Z,26.30
2022-10-26T10:27:05.349Z,22.50
2022-10-26T10:29:35.193Z,25.73
2022-10-26T10:32:05.085Z,25.67
2022-10-26T10:34:36.156Z,20.70
2022-10-26T10:37:05.943Z,25.13
2022-10-26T10:39:40.217Z,20.77
2022-10-26T10:42:17.229Z,28.08
2022-10-26T10:44:47.373Z,20.90
2022-10-26T10:47:24.101Z,29.08
2022-10-26T10:49:54.841Z,24.08
2022-10-26T10:52:30.699Z,26.08
2022-10-26T10:55:12.048Z,23.98
2022-10-26T10:57:52.902Z,23.48
2022-10-26T11:00:22.135Z,19.48
2022-10-26T11:03:16.897Z,22.67
2022-10-26T11:06:06.773Z,23.83
2022-10-26T11:08:43.408Z,21.90
2022-10-26T11:11:17.604Z,28.30
2022-10-26T11:13:51.556Z,18.80
2022-10-26T11:16:24.732Z,18.58
2022-10-26T11:18:58.959Z,19.58
2022-10-26T11:21:30.038Z,17.63
2022-10-26T11:24:13.357Z,20.52
2022-10-26T11:26:47.473Z,21.27
2022-10-26T11:29:24.702Z,21.38
2022-10-26T11:31:58.851Z,20.67
2022-10-26T11:34:40.525Z,25.92
2022-10-26T11:37:14.072Z,23.58
2022-10-26T11:39:47.558Z,24.83
2022-10-26T11:42:23.856Z,21.23
2022-10-26T11:44:56.795Z,23.52
2022-10-26T11:47:34.917Z,20.45
2022-10-26T11:50:07.626Z,24.38
2022-10-26T11:52:42.211Z,21.63
2022-10-26T11:55:12.670Z,24.45
2022-10-26T11:57:42.032Z,19.80
2022-10-26T12:00:17.308Z,20.05
2022-10-26T12:02:50.372Z,20.33
2022-10-26T12:05:22.005Z,18.30
2022-10-26T12:07:53.483Z,20.45
2022-10-26T12:10:32.879Z,16.05
2022-10-26T12:13:09.050Z,16.30
2022-10-26T12:16:02.462Z,17.20
2022-10-26T12:18:54.514Z,20.25
2022-10-26T12:21:25.218Z,26.58
2022-10-26T12:23:58.715Z,17.40
2022-10-26T12:26:41.850Z,21.10
2022-10-26T12:29:36.683Z,18.90
2022-10-26T12:32:06.919Z,18.35
2022-10-26T12:35:00.328Z,18.50
2022-10-26T12:37:36.751Z,20.48
2022-10-26T12:40:39.073Z,20.58
2022-10-26T12:43:36.708Z,16.75
2022-10-26T12:46:45.212Z,19.42
2022-10-26T12:50:00.933Z,23.38
2022-10-26T12:52:51.267Z,19.73
2022-10-26T12:55:48.926Z,19.55
2022-10-26T12:58:44.215Z,21.77
2022-10-26T13:01:45.896Z,20.85
2022-10-26T13:04:47.095Z,20.13
2022-10-26T13:07:21.579Z,18.38
2022-10-26T13:09:57.930Z,21.85
2022-10-26T13:12:29.070Z,16.15
2022-10-26T13:15:01.697Z,24.00
2022-10-26T13:17:32.512Z,21.52
2022-10-26T13:20:03.798Z,18.10
2022-10-26T13:22:33.036Z,20.50
2022-10-26T13:25:05.421Z,21.75
2022-10-26T13:27:45.183Z,21.00
2022-10-26T13:30:43.687Z,26.92
2022-10-26T13:33:22.571Z,21.30
2022-10-26T13:35:54.809Z,19.52
2022-10-26T13:38:26.855Z,21.27
2022-10-26T13:41:01.232Z,17.45
2022-10-26T13:43:29.818Z,19.60
2022-10-26T13:46:01.337Z,19.73
2022-10-26T13:48:38.864Z,20.35
2022-10-26T13:51:17.351Z,21.65
2022-10-26T13:53:52.536Z,22.98
2022-10-26T13:56:29.368Z,15.73
2022-10-26T13:59:03.060Z,20.92
2022-10-26T14:01:32.170Z,17.90
2022-10-26T14:04:00.458Z,16.65
2022-10-26T14:06:34.609Z,17.30
2022-10-26T14:09:06.048Z,19.67
2022-10-26T14:11:38.962Z,17.35
2022-10-26T14:14:07.147Z,21.95
2022-10-26T14:16:36.491Z,18.95
2022-10-26T14:19:04.983Z,23.45
2022-10-26T14:21:34.706Z,19.40
2022-10-26T14:24:07.675Z,16.42
2022-10-26T14:26:41.892Z,16.58
2022-10-26T14:29:18.509Z,20.05
2022-10-26T14:31:46.701Z,17.40
2022-10-26T14:34:15.090Z,17.65
2022-10-26T14:36:47.852Z,16.20
2022-10-26T14:39:25.051Z,18.13
2022-10-26T14:41:55.329Z,19.73
2022-10-26T14:44:25.487Z,16.95
2022-10-26T14:46:54.542Z,16.63
2022-10-26T14:49:25.856Z,24.40
2022-10-26T14:52:00.367Z,14.05
2022-10-26T14:54:30.067Z,18.63
2022-10-26T14:56:58.608Z,15.13
2022-10-26T14:59:28.699Z,17.77
2022-10-26T15:01:58.203Z,15.80
2022-10-26T15:04:36.714Z,17.45
2022-10-26T15:07:18.694Z,24.02
2022-10-26T15:09:48.512Z,19.02
2022-10-26T15:12:23.754Z,14.65
2022-10-26T15:14:53.106Z,15.13
2022-10-26T15:17:27.678Z,17.27
2022-10-26T15:19:57.883Z,15.95
2022-10-26T15:22:32.114Z,18.85
2022-10-26T15:25:03.259Z,16.80
2022-10-26T15:27:31.738Z,18.17
2022-10-26T15:30:20.136Z,14.82
2022-10-26T15:32:49.112Z,17.25
2022-10-26T15:35:29.482Z,20.17
2022-10-26T15:38:01.015Z,19.30
2022-10-26T15:40:31.123Z,15.02
2022-10-26T15:43:01.783Z,16.30
2022-10-26T15:45:33.048Z,18.63
2022-10-26T15:48:18.154Z,16.80
2022-10-26T15:50:46.319Z,17.85
2022-10-26T15:53:20.295Z,17.52
2022-10-26T15:55:56.055Z,14.98
2022-10-26T15:58:24.570Z,18.17
2022-10-26T16:00:52.821Z,15.90
2022-10-26T16:03:23.078Z,15.48
2022-10-26T16:05:56.379Z,18.38
2022-10-26T16:08:27.971Z,19.52
2022-10-26T16:10:56.418Z,16.48
2022-10-26T16:13:24.801Z,19.58
2022-10-26T16:15:52.935Z,19.52
2022-10-26T16:18:21.279Z,20.08
2022-10-26T16:20:49.617Z,19.30
2022-10-26T16:23:17.747Z,21.90
2022-10-26T16:25:48.094Z,19.08
2022-10-26T16:28:17.719Z,18.85
2022-10-26T16:30:46.153Z,18.05
2022-10-26T16:33:14.423Z,18.90
2022-10-26T16:35:42.664Z,17.05
2022-10-26T16:38:10.903Z,18.95
2022-10-26T16:40:42.597Z,19.45
2022-10-26T16:43:12.465Z,21.83
2022-10-26T16:45:42.330Z,17.77
2022-10-26T16:48:15.052Z,22.88
2022-10-26T16:50:43.965Z,19.95
2022-10-26T16:53:12.129Z,24.77
2022-10-26T16:55:40.390Z,22.25
2022-10-26T16:58:08.896Z,25.38
2022-10-26T17:00:39.127Z,22.80
2022-10-26T17:03:07.262Z,28.85
2022-10-26T17:05:35.516Z,25.20
2022-10-26T17:08:03.669Z,27.67
2022-10-26T17:10:31.893Z,27.35
2022-10-26T17:13:00.035Z,29.90
2022-10-26T17:15:29.091Z,27.48
2022-10-26T17:17:58.859Z,28.45
2022-10-26T17:20:27.137Z,30.98
2022-10-26T17:22:57.451Z,34.75
2022-10-26T17:25:25.693Z,33.90
2022-10-26T17:27:53.915Z,29.30
2022-10-26T17:30:22.099Z,28.83
2022-10-26T17:32:50.610Z,30.35
2022-10-26T17:35:20.457Z,32.63
2022-10-26T17:37:48.956Z,35.42
2022-10-26T17:40:17.549Z,33.50
2022-10-26T17:42:45.908Z,34.00
2022-10-26T17:45:14.075Z,30.27
2022-10-26T17:47:42.417Z,28.15
2022-10-26T17:50:10.975Z,32.17
2022-10-26T17:52:40.500Z,33.67
2022-10-26T17:55:09.142Z,36.20
2022-10-26T17:57:37.328Z,39.72
2022-10-26T18:00:06.373Z,34.65
2022-10-26T18:02:40.652Z,33.13
2022-10-26T18:05:10.181Z,45.45
2022-10-26T18:07:38.382Z,40.42
2022-10-26T18:10:32.801Z,45.47
2022-10-26T18:12:56.808Z,42.85
2022-10-26T18:15:25.086Z,49.40
2022-10-26T18:17:58.185Z,41.05
2022-10-26T18:20:28.787Z,43.47
2022-10-26T18:22:57.635Z,47.63
2022-10-26T18:25:27.704Z,44.40
2022-10-26T18:27:56.136Z,40.88
2022-10-26T18:30:24.876Z,41.40
2022-10-26T18:32:53.952Z,41.05
2022-10-26T18:35:22.670Z,41.35
2022-10-26T18:37:51.096Z,39.45
2022-10-26T18:40:19.540Z,41.45
2022-10-26T18:42:49.100Z,42.65
2022-10-26T18:45:17.381Z,41.00
2022-10-26T18:47:45.531Z,38.25
2022-10-26T18:50:13.698Z,45.35
2022-10-26T18:52:42.063Z,39.03
2022-10-26T18:55:11.134Z,47.42
2022-10-26T18:57:39.298Z,44.80
2022-10-26T19:00:10.670Z,44.00
2022-10-26T19:02:38.918Z,49.63
2022-10-26T19:05:08.176Z,52.83
2022-10-26T19:07:38.978Z,57.35
2022-10-26T19:10:08.278Z,48.47
2022-10-26T19:12:36.512Z,46.22
2022-10-26T19:15:05.205Z,41.17
2022-10-26T19:17:34.780Z,45.78
2022-10-26T19:20:02.962Z,45.13
2022-10-26T19:22:31.206Z,44.08
2022-10-26T19:24:59.437Z,44.58
2022-10-26T19:27:27.605Z,44.38
2022-10-26T19:29:55.728Z,72.00
2022-10-26T19:32:23.955Z,55.17
2022-10-26T19:34:53.632Z,50.70
2022-10-26T19:37:23.683Z,56.58
2022-10-26T19:39:54.208Z,62.20
2022-10-26T19:42:24.822Z,54.28
2022-10-26T19:44:53.021Z,53.95
2022-10-26T19:47:21.233Z,64.78
2022-10-26T19:49:49.355Z,72.18
2022-10-26T19:54:47.047Z,78.93
2022-10-26T19:57:15.379Z,71.97
2022-10-26T19:59:44.461Z,68.38
2022-10-26T20:02:13.014Z,62.90
2022-10-26T20:04:42.295Z,53.95
2022-10-26T20:07:11.029Z,63.53
2022-10-26T20:09:40.597Z,52.78
2022-10-26T20:12:12.660Z,52.38
2022-10-26T20:14:41.333Z,56.30
2022-10-26T20:17:09.643Z,59.95
2022-10-26T20:19:37.894Z,64.43
2022-10-26T20:22:06.046Z,61.25
2022-10-26T20:24:34.297Z,61.33
2022-10-26T20:27:03.917Z,58.65
2022-10-26T20:29:32.187Z,52.10
2022-10-26T20:32:00.401Z,62.05
2022-10-26T20:36:56.780Z,68.88
2022-10-26T20:39:25.469Z,76.53
2022-10-26T20:41:54.203Z,62.42
2022-10-26T20:44:28.209Z,64.03
2022-10-26T20:46:56.854Z,67.07
2022-10-26T20:49:26.734Z,66.13
2022-10-26T20:52:20.317Z,70.22
2022-10-26T20:54:55.194Z,63.92
2022-10-26T20:57:30.879Z,62.13
2022-10-26T21:00:05.585Z,60.67
2022-10-26T21:02:33.869Z,61.28
2022-10-26T21:05:02.062Z,65.50
2022-10-26T21:07:30.269Z,70.78
2022-10-26T21:09:58.480Z,71.97
2022-10-26T21:12:26.713Z,70.35
2022-10-26T21:14:54.861Z,65.38
2022-10-26T21:17:24.409Z,64.95
2022-10-26T21:19:52.570Z,69.10
2022-10-26T21:22:20.719Z,67.53
2022-10-26T21:24:48.926Z,67.65
2022-10-26T21:27:17.078Z,69.90
2022-10-26T21:29:45.236Z,70.78
2022-10-26T21:32:13.366Z,69.05
2022-10-26T21:34:42.859Z,70.85
2022-10-26T21:37:11.010Z,76.80
2022-10-26T21:39:39.186Z,71.97
2022-10-26T21:42:07.366Z,80.10
2022-10-26T21:44:42.527Z,68.38
2022-10-26T21:47:11.012Z,73.55
2022-10-26T21:52:09.386Z,72.13
2022-10-26T21:54:37.549Z,62.13
2022-10-26T21:57:05.858Z,63.08
2022-10-26T21:59:33.991Z,69.85
2022-10-26T22:02:02.294Z,65.00
2022-10-26T22:04:30.543Z,63.97
2022-10-26T22:06:58.659Z,56.95
2022-10-26T22:09:28.220Z,55.00
2022-10-26T22:11:56.358Z,60.42
2022-10-26T22:14:24.624Z,58.55
2022-10-26T22:16:52.799Z,58.05
2022-10-26T22:19:20.915Z,59.53
2022-10-26T22:21:49.210Z,61.13
2022-10-26T22:24:17.580Z,61.60
2022-10-26T22:26:47.270Z,62.45
2022-10-26T22:29:15.404Z,57.40
2022-10-26T22:31:43.594Z,57.92
2022-10-26T22:34:16.406Z,50.92
2022-10-26T22:36:45.092Z,62.08
2022-10-26T22:39:13.220Z,62.67
2022-10-26T22:41:41.413Z,59.30
2022-10-26T22:44:11.021Z,57.78
2022-10-26T22:46:39.268Z,58.90
2022-10-26T22:49:07.462Z,57.88
2022-10-26T22:51:36.481Z,55.10
2022-10-26T22:54:06.458Z,56.75
2022-10-26T22:56:36.582Z,64.32
2022-10-26T22:59:05.308Z,57.60
2022-10-26T23:01:38.446Z,56.53
2022-10-26T23:04:06.819Z,60.03
2022-10-26T23:06:35.372Z,60.88
2022-10-26T23:09:03.547Z,60.08
2022-10-26T23:11:32.819Z,56.35
2022-10-26T23:14:03.228Z,60.28
2022-10-26T23:16:32.325Z,64.55
2022-10-26T23:19:01.929Z,70.72
2022-10-26T23:21:30.346Z,68.95
2022-10-26T23:23:58.921Z,72.07
2022-10-26T23:26:27.160Z,67.72
2022-10-26T23:28:56.202Z,71.45
2022-10-26T23:31:26.754Z,66.40
2022-10-26T23:33:56.714Z,62.22
2022-10-26T23:36:26.636Z,65.57
2022-10-26T23:38:54.773Z,67.47
2022-10-26T23:41:23.005Z,57.20
2022-10-26T23:43:51.188Z,68.35
2022-10-26T23:46:19.378Z,62.38
2022-10-26T23:48:47.586Z,63.83
2022-10-26T23:51:15.765Z,70.85
2022-10-26T23:53:45.265Z,63.60
2022-10-26T23:56:13.452Z,59.60
2022-10-26T23:58:41.769Z,58.33
